createdAt,value
2017-11-19T00:01:12.139Z,13.68
2017-11-19T00:03:38.482Z,14.07
2017-11-19T00:06:04.856Z,14.25
2017-11-19T00:08:31.952Z,15.27
2017-11-19T00:10:58.316Z,16.10
2017-11-19T00:13:24.710Z,14.80
2017-11-19T00:15:51.114Z,14.50
2017-11-19T00:18:17.571Z,15.52
2017-11-19T00:20:44.032Z,15.23
2017-11-19T00:23:10.479Z,15.43
2017-11-19T00:25:36.902Z,15.65
2017-11-19T00:28:03.346Z,14.13
2017-11-19T00:30:29.821Z,14.43
2017-11-19T00:32:56.290Z,13.80
2017-11-19T00:35:22.795Z,14.30
2017-11-19T00:37:49.310Z,13.82
2017-11-19T00:40:16.479Z,13.70
2017-11-19T00:42:42.923Z,13.15
2017-11-19T00:45:09.319Z,13.00
2017-11-19T00:47:35.739Z,14.00
2017-11-19T00:50:02.156Z,13.25
2017-11-19T00:52:28.558Z,13.70
2017-11-19T00:54:54.975Z,11.70
2017-11-19T00:57:21.394Z,14.13
2017-11-19T00:59:47.858Z,12.27
2017-11-19T01:02:14.271Z,12.50
2017-11-19T01:04:40.708Z,12.30
2017-11-19T01:07:07.161Z,13.45
2017-11-19T01:09:33.607Z,13.25
2017-11-19T01:12:00.055Z,13.50
2017-11-19T01:14:26.503Z,13.23
2017-11-19T01:16:52.985Z,12.35
2017-11-19T01:19:19.403Z,12.00
2017-11-19T01:21:45.790Z,13.85
2017-11-19T01:24:12.225Z,12.35
2017-11-19T01:26:38.722Z,12.10
2017-11-19T01:29:05.151Z,11.90
2017-11-19T01:31:31.590Z,11.50
2017-11-19T01:33:58.008Z,11.98
2017-11-19T01:36:24.461Z,12.13
2017-11-19T01:38:50.874Z,11.88
2017-11-19T01:41:17.306Z,12.32
2017-11-19T01:43:43.787Z,11.93
2017-11-19T01:46:10.269Z,12.82
2017-11-19T01:48:36.699Z,11.55
2017-11-19T01:51:03.142Z,10.80
2017-11-19T01:53:29.565Z,13.10
2017-11-19T01:55:56.022Z,11.93
2017-11-19T01:58:22.456Z,12.35
2017-11-19T02:00:48.910Z,12.65
2017-11-19T02:03:15.358Z,12.73
2017-11-19T02:05:41.756Z,13.02
2017-11-19T02:08:08.187Z,12.50
2017-11-19T02:10:34.606Z,10.30
2017-11-19T02:13:01.043Z,11.30
2017-11-19T02:15:27.466Z,13.00
2017-11-19T02:17:53.904Z,11.73
2017-11-19T02:20:20.376Z,13.38
2017-11-19T02:22:48.138Z,12.00
2017-11-19T02:25:15.343Z,11.65
2017-11-19T02:27:41.738Z,11.65
2017-11-19T02:30:08.143Z,11.80
2017-11-19T02:32:35.275Z,11.23
2017-11-19T02:35:01.687Z,11.60
2017-11-19T02:37:28.095Z,10.63
2017-11-19T02:39:55.243Z,11.55
2017-11-19T02:42:22.406Z,11.15
2017-11-19T02:44:48.819Z,12.80
2017-11-19T02:47:15.252Z,11.82
2017-11-19T02:49:41.787Z,12.57
2017-11-19T02:52:08.922Z,11.70
2017-11-19T02:54:35.328Z,13.15
2017-11-19T02:57:01.766Z,13.25
2017-11-19T02:59:28.254Z,13.50
2017-11-19T03:01:55.416Z,11.73
2017-11-19T03:04:21.827Z,11.52
2017-11-19T03:06:48.979Z,10.88
2017-11-19T03:09:16.159Z,10.18
2017-11-19T03:11:42.588Z,9.90
2017-11-19T03:14:09.090Z,10.98
2017-11-19T03:16:36.297Z,9.38
2017-11-19T03:19:02.710Z,10.02
2017-11-19T03:21:29.191Z,9.45
2017-11-19T03:23:55.611Z,10.50
2017-11-19T03:26:22.112Z,9.30
2017-11-19T03:28:48.542Z,8.80
2017-11-19T03:31:14.952Z,9.50
2017-11-19T03:33:42.118Z,8.30
2017-11-19T03:36:08.551Z,8.02
2017-11-19T03:38:34.979Z,6.85
2017-11-19T03:41:01.428Z,7.85
2017-11-19T03:43:27.814Z,6.93
2017-11-19T03:45:54.978Z,7.05
2017-11-19T03:48:21.443Z,7.82
2017-11-19T03:50:47.839Z,7.40
2017-11-19T03:53:14.999Z,6.43
2017-11-19T03:55:41.474Z,5.20
2017-11-19T03:58:07.899Z,6.70
2017-11-19T04:00:34.287Z,6.05
2017-11-19T04:03:00.762Z,5.50
2017-11-19T04:05:27.162Z,5.75
2017-11-19T04:07:53.603Z,4.53
2017-11-19T04:10:20.768Z,4.47
2017-11-19T04:12:47.193Z,5.55
2017-11-19T04:15:13.604Z,5.15
2017-11-19T04:17:40.738Z,5.05
2017-11-19T04:20:07.214Z,4.60
2017-11-19T04:22:33.658Z,4.90
2017-11-19T04:25:00.091Z,4.55
2017-11-19T04:27:26.571Z,4.03
2017-11-19T04:29:53.005Z,4.40
2017-11-19T04:32:19.451Z,3.47
2017-11-19T04:34:46.647Z,3.53
2017-11-19T04:37:13.842Z,3.00
2017-11-19T04:39:41.040Z,3.70
2017-11-19T04:42:07.455Z,3.30
2017-11-19T04:44:33.906Z,3.12
2017-11-19T04:47:00.338Z,3.10
2017-11-19T04:49:26.822Z,3.10
2017-11-19T04:51:53.231Z,2.65
2017-11-19T04:54:19.738Z,3.37
2017-11-19T04:56:46.151Z,3.30
2017-11-19T04:59:12.567Z,3.40
2017-11-19T05:01:39.800Z,3.92
2017-11-19T05:04:06.273Z,3.20
2017-11-19T05:06:33.434Z,3.30
2017-11-19T05:08:59.838Z,2.83
2017-11-19T05:11:27.006Z,2.97
2017-11-19T05:13:53.410Z,2.83
2017-11-19T05:16:20.596Z,2.55
2017-11-19T05:18:47.010Z,2.67
2017-11-19T05:21:14.143Z,3.00
2017-11-19T05:23:40.563Z,3.47
2017-11-19T05:26:06.971Z,3.17
2017-11-19T05:28:33.370Z,3.10
2017-11-19T05:30:59.863Z,3.25
2017-11-19T05:33:26.314Z,3.15
2017-11-19T05:35:53.554Z,2.67
2017-11-19T05:38:20.699Z,2.80
2017-11-19T05:40:47.118Z,2.70
2017-11-19T05:43:13.527Z,2.45
2017-11-19T05:45:39.942Z,2.90
2017-11-19T05:48:06.339Z,3.53
2017-11-19T05:50:32.803Z,2.62
2017-11-19T05:52:59.219Z,2.90
2017-11-19T05:55:25.642Z,2.80
2017-11-19T05:57:52.803Z,2.20
2017-11-19T06:00:19.202Z,2.40
2017-11-19T06:02:46.399Z,2.12
2017-11-19T06:05:12.780Z,2.33
2017-11-19T06:07:39.943Z,2.45
2017-11-19T06:10:06.357Z,2.80
2017-11-19T06:12:32.750Z,2.15
2017-11-19T06:14:59.168Z,1.85
2017-11-19T06:17:25.600Z,1.73
2017-11-19T06:19:52.022Z,1.70
2017-11-19T06:22:18.442Z,1.80
2017-11-19T06:24:44.883Z,2.05
2017-11-19T06:27:12.049Z,1.50
2017-11-19T06:29:38.452Z,1.50
2017-11-19T06:32:04.905Z,2.00
2017-11-19T06:34:31.304Z,1.50
2017-11-19T06:36:57.702Z,1.58
2017-11-19T06:39:24.135Z,2.15
2017-11-19T06:41:50.608Z,1.70
2017-11-19T06:44:17.047Z,2.10
2017-11-19T06:46:43.500Z,2.12
2017-11-19T06:49:09.917Z,1.80
2017-11-19T06:51:37.103Z,1.60
2017-11-19T06:54:03.532Z,1.70
2017-11-19T06:56:29.990Z,1.65
2017-11-19T06:58:56.386Z,1.42
2017-11-19T07:01:23.517Z,1.65
2017-11-19T07:03:50.646Z,1.83
2017-11-19T07:06:17.103Z,3.42
2017-11-19T07:08:44.243Z,2.80
2017-11-19T07:11:10.671Z,3.10
2017-11-19T07:13:37.095Z,4.55
2017-11-19T07:16:03.579Z,2.45
2017-11-19T07:18:29.994Z,6.03
2017-11-19T07:20:56.406Z,4.32
2017-11-19T07:23:22.851Z,2.30
2017-11-19T07:25:50.019Z,3.35
2017-11-19T07:28:16.478Z,2.85
2017-11-19T07:30:42.971Z,3.40
2017-11-19T07:33:10.207Z,2.05
2017-11-19T07:35:37.410Z,2.60
2017-11-19T07:38:03.855Z,1.98
2017-11-19T07:40:30.310Z,1.40
2017-11-19T07:42:56.712Z,2.58
2017-11-19T07:45:23.134Z,1.50
2017-11-19T07:47:49.547Z,2.25
2017-11-19T07:50:16.090Z,4.28
2017-11-19T07:52:42.583Z,3.90
2017-11-19T07:55:09.044Z,2.40
2017-11-19T07:57:35.529Z,3.53
2017-11-19T08:00:01.962Z,3.70
2017-11-19T08:02:29.211Z,3.00
2017-11-19T08:04:55.616Z,3.80
2017-11-19T08:07:22.668Z,3.60
2017-11-19T08:09:49.120Z,2.70
2017-11-19T08:12:15.567Z,2.80
2017-11-19T08:14:42.026Z,6.75
2017-11-19T08:17:09.213Z,10.48
2017-11-19T08:19:35.700Z,19.70
2017-11-19T08:22:02.170Z,24.25
2017-11-19T08:24:28.664Z,5.20
2017-11-19T08:26:55.140Z,2.72
2017-11-19T08:29:21.563Z,2.50
2017-11-19T08:31:47.996Z,3.55
2017-11-19T08:34:15.155Z,5.45
2017-11-19T08:36:41.587Z,11.35
2017-11-19T08:39:08.003Z,6.82
2017-11-19T08:41:35.224Z,4.22
2017-11-19T08:44:01.691Z,4.20
2017-11-19T08:46:28.087Z,4.40
2017-11-19T08:48:54.500Z,4.25
2017-11-19T08:51:20.974Z,3.55
2017-11-19T08:53:47.396Z,3.70
2017-11-19T08:56:14.608Z,4.37
2017-11-19T08:58:41.014Z,7.30
2017-11-19T09:01:07.431Z,5.50
2017-11-19T09:03:34.640Z,4.50
2017-11-19T09:06:01.067Z,9.63
2017-11-19T09:08:27.516Z,2.95
2017-11-19T09:10:53.957Z,2.78
2017-11-19T09:13:20.443Z,2.90
2017-11-19T09:15:46.856Z,4.47
2017-11-19T09:18:14.072Z,14.63
2017-11-19T09:20:41.254Z,4.40
2017-11-19T09:23:08.437Z,4.80
2017-11-19T09:25:34.852Z,3.47
2017-11-19T09:28:01.296Z,3.20
2017-11-19T09:30:27.744Z,3.20
2017-11-19T09:32:54.204Z,3.45
2017-11-19T09:35:20.640Z,2.87
2017-11-19T09:37:47.100Z,3.08
2017-11-19T09:40:14.275Z,3.00
2017-11-19T09:42:40.738Z,2.45
2017-11-19T09:45:07.242Z,2.80
2017-11-19T09:47:33.718Z,3.85
2017-11-19T09:50:00.139Z,3.20
2017-11-19T09:52:26.579Z,3.28
2017-11-19T09:54:53.025Z,7.15
2017-11-19T09:57:19.457Z,3.20
2017-11-19T09:59:45.945Z,5.05
2017-11-19T10:02:12.450Z,12.90
2017-11-19T10:04:39.583Z,2.92
2017-11-19T10:07:06.033Z,4.00
2017-11-19T10:09:33.208Z,3.65
2017-11-19T10:11:59.604Z,15.82
2017-11-19T10:14:26.036Z,4.15
2017-11-19T10:16:52.483Z,4.37
2017-11-19T10:19:19.677Z,16.87
2017-11-19T10:21:46.104Z,5.15
2017-11-19T10:24:12.524Z,5.35
2017-11-19T10:26:38.999Z,3.40
2017-11-19T10:29:05.491Z,3.55
2017-11-19T10:31:31.924Z,3.20
2017-11-19T10:33:58.406Z,3.08
2017-11-19T10:36:24.804Z,3.90
2017-11-19T10:38:51.229Z,5.20
2017-11-19T10:41:17.678Z,3.50
2017-11-19T10:43:44.134Z,4.12
2017-11-19T10:46:10.720Z,3.50
2017-11-19T10:48:37.198Z,3.20
2017-11-19T10:51:03.620Z,3.40
2017-11-19T10:53:30.100Z,4.40
2017-11-19T10:55:57.253Z,3.42
2017-11-19T10:58:24.387Z,4.18
2017-11-19T11:00:51.629Z,4.75
2017-11-19T11:03:18.817Z,4.00
2017-11-19T11:05:45.245Z,5.15
2017-11-19T11:08:12.436Z,4.00
2017-11-19T11:10:38.886Z,4.87
2017-11-19T11:13:05.311Z,17.87
2017-11-19T11:15:31.734Z,11.95
2017-11-19T11:17:58.965Z,5.43
2017-11-19T11:20:25.426Z,5.35
2017-11-19T11:22:51.863Z,6.00
2017-11-19T11:25:18.310Z,4.78
2017-11-19T11:27:44.800Z,4.50
2017-11-19T11:30:11.223Z,6.07
2017-11-19T11:32:37.646Z,5.05
2017-11-19T11:35:04.136Z,4.90
2017-11-19T11:37:30.553Z,4.55
2017-11-19T11:39:57.006Z,4.70
2017-11-19T11:42:23.472Z,4.70
2017-11-19T11:44:49.916Z,6.10
2017-11-19T11:47:16.396Z,5.25
2017-11-19T11:49:42.900Z,7.70
2017-11-19T11:52:09.330Z,4.40
2017-11-19T11:54:35.805Z,3.62
2017-11-19T11:57:02.233Z,4.70
2017-11-19T11:59:28.648Z,8.07
2017-11-19T12:01:55.218Z,5.65
2017-11-19T12:04:22.451Z,9.18
2017-11-19T12:06:48.871Z,4.53
2017-11-19T12:09:15.294Z,5.03
2017-11-19T12:11:41.693Z,6.40
2017-11-19T12:14:08.099Z,5.00
2017-11-19T12:16:34.538Z,4.93
2017-11-19T12:19:00.925Z,6.30
2017-11-19T12:21:27.376Z,5.00
2017-11-19T12:23:53.859Z,11.27
2017-11-19T12:26:20.310Z,5.82
2017-11-19T12:28:46.779Z,3.90
2017-11-19T12:31:13.277Z,4.30
2017-11-19T12:33:39.917Z,4.65
2017-11-19T12:36:06.347Z,4.45
2017-11-19T12:38:32.820Z,17.95
2017-11-19T12:40:59.244Z,4.68
2017-11-19T12:43:25.666Z,4.78
2017-11-19T12:45:52.114Z,5.07
2017-11-19T12:48:18.609Z,5.60
2017-11-19T12:50:45.045Z,6.00
2017-11-19T12:53:11.493Z,4.35
2017-11-19T12:55:38.040Z,6.00
2017-11-19T12:58:04.490Z,6.65
2017-11-19T13:00:30.987Z,8.00
2017-11-19T13:02:57.438Z,9.50
2017-11-19T13:05:23.886Z,7.72
2017-11-19T13:07:50.363Z,6.40
2017-11-19T13:10:16.835Z,4.87
2017-11-19T13:12:43.273Z,5.65
2017-11-19T13:15:09.722Z,6.87
2017-11-19T13:17:36.106Z,5.32
2017-11-19T13:20:02.577Z,5.45
2017-11-19T13:22:29.027Z,4.50
2017-11-19T13:24:55.461Z,4.78
2017-11-19T13:27:21.929Z,4.37
2017-11-19T13:29:48.441Z,4.57
2017-11-19T13:32:15.618Z,4.45
2017-11-19T13:34:42.076Z,4.50
2017-11-19T13:37:08.492Z,4.30
2017-11-19T13:39:34.949Z,5.10
2017-11-19T13:42:01.440Z,4.30
2017-11-19T13:44:28.578Z,6.70
2017-11-19T13:46:55.775Z,5.62
2017-11-19T13:49:22.207Z,4.68
2017-11-19T13:51:48.625Z,5.78
2017-11-19T13:54:15.069Z,5.78
2017-11-19T13:56:41.567Z,12.05
2017-11-19T13:59:08.864Z,4.22
2017-11-19T14:01:35.283Z,3.62
2017-11-19T14:04:01.714Z,3.75
2017-11-19T14:06:28.202Z,4.85
2017-11-19T14:08:54.631Z,3.40
2017-11-19T14:11:21.950Z,2.80
2017-11-19T14:13:48.444Z,3.30
2017-11-19T14:16:15.027Z,3.40
2017-11-19T14:18:41.503Z,3.35
2017-11-19T14:21:08.671Z,3.15
2017-11-19T14:23:35.118Z,2.90
2017-11-19T14:26:01.596Z,3.90
2017-11-19T14:28:28.011Z,2.90
2017-11-19T14:30:54.440Z,3.55
2017-11-19T14:33:21.132Z,4.10
2017-11-19T14:35:48.316Z,3.72
2017-11-19T14:38:14.755Z,4.03
2017-11-19T14:40:41.209Z,3.03
2017-11-19T14:43:07.788Z,3.08
2017-11-19T14:45:34.250Z,2.65
2017-11-19T14:48:00.771Z,3.83
2017-11-19T14:50:27.238Z,3.40
2017-11-19T14:52:53.710Z,8.63
2017-11-19T14:55:20.917Z,13.20
2017-11-19T14:57:47.385Z,9.27
2017-11-19T15:00:13.854Z,4.97
2017-11-19T15:02:40.298Z,4.43
2017-11-19T15:05:06.799Z,4.25
2017-11-19T15:07:33.979Z,5.15
2017-11-19T15:10:00.402Z,4.30
2017-11-19T15:12:26.862Z,4.65
2017-11-19T15:14:53.266Z,3.47
2017-11-19T15:17:19.747Z,3.40
2017-11-19T15:19:46.921Z,3.60
2017-11-19T15:22:13.420Z,7.68
2017-11-19T15:24:39.847Z,8.45
2017-11-19T15:27:06.291Z,4.93
2017-11-19T15:29:32.760Z,7.32
2017-11-19T15:31:59.155Z,5.65
2017-11-19T15:34:25.609Z,5.97
2017-11-19T15:36:52.013Z,5.45
2017-11-19T15:39:18.488Z,5.75
2017-11-19T15:41:45.657Z,5.30
2017-11-19T15:44:12.803Z,5.05
2017-11-19T15:46:39.281Z,4.05
2017-11-19T15:49:05.702Z,3.92
2017-11-19T15:51:32.163Z,3.70
2017-11-19T15:53:58.603Z,5.37
2017-11-19T15:56:25.110Z,4.87
2017-11-19T15:58:52.394Z,5.85
2017-11-19T16:01:18.856Z,9.77
2017-11-19T16:03:46.077Z,51.28
2017-11-19T16:06:13.307Z,8.75
2017-11-19T16:08:39.699Z,4.07
2017-11-19T16:11:06.144Z,7.07
2017-11-19T16:13:32.576Z,5.22
2017-11-19T16:15:59.008Z,5.20
2017-11-19T16:18:25.456Z,5.10
2017-11-19T16:20:51.868Z,5.47
2017-11-19T16:23:18.372Z,4.60
2017-11-19T16:25:44.772Z,4.47
2017-11-19T16:28:11.396Z,4.30
2017-11-19T16:30:37.878Z,4.35
2017-11-19T16:33:05.117Z,5.60
2017-11-19T16:35:31.571Z,7.35
2017-11-19T16:37:58.748Z,5.47
2017-11-19T16:40:25.509Z,5.62
2017-11-19T16:42:51.916Z,4.90
2017-11-19T16:45:18.343Z,4.55
2017-11-19T16:47:44.801Z,6.07
2017-11-19T16:50:11.239Z,4.25
2017-11-19T16:52:37.668Z,4.85
2017-11-19T16:55:04.102Z,6.25
2017-11-19T16:57:30.551Z,7.20
2017-11-19T16:59:56.981Z,5.62
2017-11-19T17:02:23.711Z,5.75
2017-11-19T17:04:50.133Z,5.07
2017-11-19T17:07:16.556Z,4.93
2017-11-19T17:09:43.055Z,4.65
2017-11-19T17:12:09.464Z,5.25
2017-11-19T17:14:35.898Z,4.80
2017-11-19T17:17:02.378Z,4.43
2017-11-19T17:19:28.835Z,5.82
2017-11-19T17:21:55.348Z,4.62
2017-11-19T17:24:21.798Z,6.28
2017-11-19T17:26:48.240Z,5.65
2017-11-19T17:29:14.715Z,5.15
2017-11-19T17:31:41.182Z,5.35
2017-11-19T17:34:07.609Z,6.90
2017-11-19T17:36:34.794Z,7.97
2017-11-19T17:39:01.226Z,11.43
2017-11-19T17:41:27.638Z,12.35
2017-11-19T17:43:54.167Z,9.30
2017-11-19T17:46:20.589Z,6.62
2017-11-19T17:48:47.041Z,6.60
2017-11-19T17:51:13.494Z,6.72
2017-11-19T17:53:39.912Z,8.20
2017-11-19T17:56:06.387Z,8.05
2017-11-19T17:58:32.786Z,8.40
2017-11-19T18:00:59.241Z,7.80
2017-11-19T18:03:25.710Z,8.57
2017-11-19T18:05:52.874Z,6.82
2017-11-19T18:08:19.353Z,6.62
2017-11-19T18:10:46.563Z,5.95
2017-11-19T18:13:13.035Z,6.95
2017-11-19T18:15:39.510Z,5.97
2017-11-19T18:18:06.700Z,7.62
2017-11-19T18:20:33.177Z,8.32
2017-11-19T18:23:00.357Z,7.30
2017-11-19T18:25:26.794Z,7.25
2017-11-19T18:27:53.259Z,7.60
2017-11-19T18:30:19.738Z,7.35
2017-11-19T18:32:46.975Z,7.10
2017-11-19T18:35:13.447Z,8.82
2017-11-19T18:37:39.863Z,7.35
2017-11-19T18:40:06.281Z,6.40
2017-11-19T18:42:33.464Z,6.60
2017-11-19T18:44:59.937Z,6.40
2017-11-19T18:47:26.669Z,6.55
2017-11-19T18:49:53.117Z,6.40
2017-11-19T18:52:19.569Z,5.70
2017-11-19T18:54:46.027Z,6.40
2017-11-19T18:57:12.457Z,5.28
2017-11-19T18:59:38.931Z,6.35
2017-11-19T19:02:05.344Z,6.47
2017-11-19T19:04:32.110Z,5.97
2017-11-19T19:06:58.563Z,7.30
2017-11-19T19:09:25.739Z,7.43
2017-11-19T19:11:52.916Z,7.05
2017-11-19T19:14:19.346Z,6.85
2017-11-19T19:16:45.790Z,7.07
2017-11-19T19:19:12.227Z,12.15
2017-11-19T19:21:38.701Z,16.65
2017-11-19T19:24:05.184Z,9.65
2017-11-19T19:26:31.659Z,9.00
2017-11-19T19:28:58.105Z,9.10
2017-11-19T19:31:24.569Z,7.78
2017-11-19T19:33:51.231Z,7.60
2017-11-19T19:36:17.652Z,8.65
2017-11-19T19:38:44.138Z,7.50
2017-11-19T19:41:10.600Z,7.20
2017-11-19T19:43:37.804Z,8.05
2017-11-19T19:46:04.251Z,7.25
2017-11-19T19:48:31.463Z,7.72
2017-11-19T19:50:57.915Z,7.40
2017-11-19T19:53:24.344Z,8.35
2017-11-19T19:55:50.907Z,8.10
2017-11-19T19:58:17.399Z,7.12
2017-11-19T20:00:43.979Z,7.55
2017-11-19T20:03:11.216Z,5.97
2017-11-19T20:05:37.679Z,5.90
2017-11-19T20:08:04.965Z,7.43
2017-11-19T20:10:31.407Z,6.72
2017-11-19T20:12:57.888Z,7.57
2017-11-19T20:15:24.306Z,6.43
2017-11-19T20:17:50.761Z,6.70
2017-11-19T20:20:17.938Z,7.65
2017-11-19T20:22:44.386Z,6.90
2017-11-19T20:25:10.882Z,7.70
2017-11-19T20:27:38.074Z,7.05
2017-11-19T20:30:04.539Z,8.20
2017-11-19T20:32:31.039Z,8.43
2017-11-19T20:34:57.473Z,7.70
2017-11-19T20:37:24.233Z,7.50
2017-11-19T20:39:50.678Z,10.05
2017-11-19T20:42:18.578Z,10.75
2017-11-19T20:44:45.793Z,9.40
2017-11-19T20:47:12.998Z,10.77
2017-11-19T20:49:39.736Z,10.30
2017-11-19T20:52:06.167Z,10.25
2017-11-19T20:54:32.621Z,10.77
2017-11-19T20:56:59.088Z,10.30
2017-11-19T20:59:25.503Z,11.73
2017-11-19T21:01:51.942Z,9.77
2017-11-19T21:04:18.401Z,10.75
2017-11-19T21:06:44.875Z,10.25
2017-11-19T21:09:11.371Z,11.43
2017-11-19T21:11:38.543Z,11.90
2017-11-19T21:14:05.723Z,9.85
2017-11-19T21:16:32.188Z,10.52
2017-11-19T21:18:58.669Z,11.40
2017-11-19T21:21:25.862Z,9.00
2017-11-19T21:23:52.319Z,9.70
2017-11-19T21:26:19.522Z,9.10
2017-11-19T21:28:45.961Z,14.82
2017-11-19T21:31:12.453Z,11.10
2017-11-19T21:33:39.614Z,9.85
2017-11-19T21:36:06.774Z,10.60
2017-11-19T21:38:33.269Z,11.23
2017-11-19T21:40:59.682Z,9.07
2017-11-19T21:43:26.103Z,9.68
2017-11-19T21:45:52.573Z,9.15
2017-11-19T21:48:19.758Z,9.23
2017-11-19T21:50:46.226Z,8.88
2017-11-19T21:53:12.631Z,8.75
2017-11-19T21:55:39.089Z,8.60
2017-11-19T21:58:05.503Z,8.20
2017-11-19T22:00:31.912Z,8.93
2017-11-19T22:02:58.363Z,9.50
2017-11-19T22:05:24.795Z,8.30
2017-11-19T22:07:51.254Z,8.80
2017-11-19T22:10:17.673Z,8.85
2017-11-19T22:12:44.194Z,8.73
2017-11-19T22:15:10.618Z,8.93
2017-11-19T22:17:37.072Z,9.52
2017-11-19T22:20:03.525Z,7.70
2017-11-19T22:22:29.955Z,8.40
2017-11-19T22:24:57.199Z,8.50
2017-11-19T22:27:23.606Z,8.20
2017-11-19T22:29:50.085Z,8.55
2017-11-19T22:32:16.498Z,8.20
2017-11-19T22:34:42.907Z,8.25
2017-11-19T22:37:09.362Z,9.25
2017-11-19T22:39:35.783Z,9.40
2017-11-19T22:42:02.190Z,8.45
2017-11-19T22:44:28.641Z,8.77
2017-11-19T22:46:55.072Z,8.38
2017-11-19T22:49:21.465Z,7.97
2017-11-19T22:51:48.654Z,8.55
2017-11-19T22:54:15.077Z,8.60
2017-11-19T22:56:42.217Z,8.80
2017-11-19T22:59:08.649Z,8.38
2017-11-19T23:01:35.085Z,8.60
2017-11-19T23:04:02.210Z,8.60
2017-11-19T23:06:28.896Z,8.05
2017-11-19T23:08:55.310Z,8.25
2017-11-19T23:11:21.754Z,7.65
2017-11-19T23:13:48.195Z,8.07
2017-11-19T23:16:14.590Z,8.00
2017-11-19T23:18:41.759Z,10.57
2017-11-19T23:21:08.162Z,8.32
2017-11-19T23:23:35.510Z,8.80
2017-11-19T23:26:02.690Z,8.05
2017-11-19T23:28:29.120Z,7.45
2017-11-19T23:30:55.579Z,8.18
2017-11-19T23:33:22.014Z,8.15
2017-11-19T23:35:48.451Z,7.87
2017-11-19T23:38:14.823Z,7.20
2017-11-19T23:40:41.273Z,8.95
2017-11-19T23:43:08.405Z,7.62
2017-11-19T23:45:35.106Z,8.00
2017-11-19T23:48:01.490Z,7.97
2017-11-19T23:50:27.938Z,8.05
2017-11-19T23:52:54.320Z,7.97
2017-11-19T23:55:20.717Z,8.20
2017-11-19T23:57:47.130Z,8.27
